Back to Top

Language: 

My Weather Underground Personal Weather Station Historical Data with Graphs...

Delerius Weather Station Historical Data
Daily Summary for January 26, 2017 Units:  English    Metric   Both
« Previous Day
Next Day »
Daily Weekly Monthly Yearly Custom
  High: Low: Average:
Temperature: 36.2 °F 28.8 °F 31.6 °F
Dew Point: 33.8 °F 26.2 °F 29.1 °F
Humidity: 94 % 87 % 90 %
Wind Speed: 11.0 mph 4.0 mph 8.1 mph
Wind Gust: -999.0 mph - -
Wind:- - SSE
Pressure: 30.21 in 29.97 in -
Precipitation: 0.00 in    
Historical Graphs
 
 
Tabular Data for January 26, 2017
Time Temperature Dew Point Pressure Wind Wind Speed Wind Gust Humidity Rainfall Rate (Hourly) solar Conditions
00:01 36.2 °F 33.8 °F 30.21 in SSE 4.0 mph -999.0 mph 91 % 0.00 in 0 W/m2
00:06 36.2 °F 33.8 °F 30.21 in SSE 4.0 mph -999.0 mph 91 % 0.00 in 0 W/m2
00:11 36.2 °F 33.8 °F 30.21 in SSE 4.0 mph -999.0 mph 91 % 0.00 in 0 W/m2
00:16 36.2 °F 33.8 °F 30.21 in SSE 4.0 mph -999.0 mph 91 % 0.00 in 0 W/m2
00:21 36.2 °F 33.8 °F 30.21 in SSE 4.0 mph -999.0 mph 91 % 0.00 in 0 W/m2
00:26 36.2 °F 33.8 °F 30.20 in South 7.0 mph -999.0 mph 91 % 0.00 in 0 W/m2
00:31 36.2 °F 33.8 °F 30.20 in South 7.0 mph -999.0 mph 91 % 0.00 in 0 W/m2
00:36 36.2 °F 33.8 °F 30.20 in South 7.0 mph -999.0 mph 91 % 0.00 in 0 W/m2
00:41 36.2 °F 33.8 °F 30.20 in South 4.0 mph -999.0 mph 91 % 0.00 in 0 W/m2
00:46 36.2 °F 33.8 °F 30.20 in South 4.0 mph -999.0 mph 91 % 0.00 in 0 W/m2
00:51 36.2 °F 33.8 °F 30.20 in South 4.0 mph -999.0 mph 91 % 0.00 in 0 W/m2
00:56 36.2 °F 33.8 °F 30.19 in SE 6.0 mph -999.0 mph 91 % 0.00 in 0 W/m2
01:01 36.2 °F 33.8 °F 30.19 in SE 6.0 mph -999.0 mph 91 % 0.00 in 0 W/m2
01:06 36.2 °F 33.8 °F 30.19 in SE 6.0 mph -999.0 mph 91 % 0.00 in 0 W/m2
01:11 35.9 °F 33.8 °F 30.19 in SE 8.0 mph -999.0 mph 92 % 0.00 in 0 W/m2
01:16 35.9 °F 33.8 °F 30.19 in SE 8.0 mph -999.0 mph 92 % 0.00 in 0 W/m2
01:21 35.9 °F 33.8 °F 30.19 in SE 8.0 mph -999.0 mph 92 % 0.00 in 0 W/m2
01:26 35.2 °F 32.8 °F 30.19 in South 9.0 mph -999.0 mph 91 % 0.00 in 0 W/m2
01:31 35.2 °F 32.8 °F 30.19 in South 9.0 mph -999.0 mph 91 % 0.00 in 0 W/m2
01:36 35.2 °F 32.8 °F 30.19 in South 9.0 mph -999.0 mph 91 % 0.00 in 0 W/m2
01:41 34.6 °F 32.5 °F 30.18 in SSE 7.0 mph -999.0 mph 92 % 0.00 in 0 W/m2
01:46 34.6 °F 32.5 °F 30.18 in SSE 7.0 mph -999.0 mph 92 % 0.00 in 0 W/m2
01:51 34.6 °F 32.5 °F 30.18 in SSE 7.0 mph -999.0 mph 92 % 0.00 in 0 W/m2
01:56 34.5 °F 32.1 °F 30.18 in SSE 8.0 mph -999.0 mph 91 % 0.00 in 0 W/m2
02:01 34.5 °F 32.1 °F 30.18 in SSE 8.0 mph -999.0 mph 91 % 0.00 in 0 W/m2
02:06 34.5 °F 32.1 °F 30.18 in SSE 8.0 mph -999.0 mph 91 % 0.00 in 0 W/m2
02:11 34.6 °F 32.2 °F 30.17 in SE 8.0 mph -999.0 mph 91 % 0.00 in 0 W/m2
02:16 34.6 °F 32.2 °F 30.17 in SE 8.0 mph -999.0 mph 91 % 0.00 in 0 W/m2
02:21 34.6 °F 32.2 °F 30.17 in SE 8.0 mph -999.0 mph 91 % 0.00 in 0 W/m2
02:26 34.7 °F 32.3 °F 30.17 in SSE 8.0 mph -999.0 mph 91 % 0.00 in 0 W/m2
02:31 34.7 °F 32.3 °F 30.17 in SSE 8.0 mph -999.0 mph 91 % 0.00 in 0 W/m2
02:36 34.7 °F 32.3 °F 30.17 in SSE 8.0 mph -999.0 mph 91 % 0.00 in 0 W/m2
02:41 34.7 °F 32.3 °F 30.16 in SSE 7.0 mph -999.0 mph 91 % 0.00 in 0 W/m2
02:46 34.7 °F 32.3 °F 30.16 in SSE 7.0 mph -999.0 mph 91 % 0.00 in 0 W/m2
02:51 34.7 °F 32.3 °F 30.16 in SSE 7.0 mph -999.0 mph 91 % 0.00 in 0 W/m2
02:56 34.7 °F 32.3 °F 30.16 in SE 8.0 mph -999.0 mph 91 % 0.00 in 0 W/m2
03:01 34.7 °F 32.3 °F 30.16 in SE 8.0 mph -999.0 mph 91 % 0.00 in 0 W/m2
03:06 34.7 °F 32.3 °F 30.16 in SE 8.0 mph -999.0 mph 91 % 0.00 in 0 W/m2
03:11 34.4 °F 32.3 °F 30.16 in SE 10.0 mph -999.0 mph 92 % 0.00 in 0 W/m2
03:16 34.4 °F 32.3 °F 30.16 in SE 10.0 mph -999.0 mph 92 % 0.00 in 0 W/m2
03:21 34.4 °F 32.3 °F 30.16 in SE 10.0 mph -999.0 mph 92 % 0.00 in 0 W/m2
03:26 33.7 °F 31.9 °F 30.15 in SE 10.0 mph -999.0 mph 93 % 0.00 in 0 W/m2
03:31 33.7 °F 31.9 °F 30.15 in SE 10.0 mph -999.0 mph 93 % 0.00 in 0 W/m2
03:36 33.7 °F 31.9 °F 30.15 in SE 10.0 mph -999.0 mph 93 % 0.00 in 0 W/m2
03:41 33.1 °F 31.3 °F 30.15 in SE 9.0 mph -999.0 mph 93 % 0.00 in 0 W/m2
03:46 33.1 °F 31.3 °F 30.15 in SE 9.0 mph -999.0 mph 93 % 0.00 in 0 W/m2
03:51 33.1 °F 31.3 °F 30.15 in SE 9.0 mph -999.0 mph 93 % 0.00 in 0 W/m2
03:56 32.8 °F 31.0 °F 30.14 in SE 8.0 mph -999.0 mph 93 % 0.00 in 0 W/m2
04:01 32.8 °F 31.0 °F 30.14 in SE 8.0 mph -999.0 mph 93 % 0.00 in 0 W/m2
04:06 32.8 °F 31.0 °F 30.14 in SE 8.0 mph -999.0 mph 93 % 0.00 in 0 W/m2
04:11 32.7 °F 31.2 °F 30.14 in SE 7.0 mph -999.0 mph 94 % 0.00 in 0 W/m2
04:16 32.7 °F 31.2 °F 30.14 in SE 7.0 mph -999.0 mph 94 % 0.00 in 0 W/m2
04:21 32.7 °F 31.2 °F 30.14 in SE 7.0 mph -999.0 mph 94 % 0.00 in 0 W/m2
04:26 32.4 °F 30.9 °F 30.13 in SSE 8.0 mph -999.0 mph 94 % 0.00 in 0 W/m2
04:31 32.4 °F 30.9 °F 30.13 in SSE 8.0 mph -999.0 mph 94 % 0.00 in 0 W/m2
04:36 32.4 °F 30.9 °F 30.13 in SSE 8.0 mph -999.0 mph 94 % 0.00 in 0 W/m2
04:41 31.8 °F 30.3 °F 30.13 in SE 9.0 mph -999.0 mph 94 % 0.00 in 0 W/m2
04:46 31.8 °F 30.3 °F 30.13 in SE 9.0 mph -999.0 mph 94 % 0.00 in 0 W/m2
04:51 31.8 °F 30.3 °F 30.13 in SE 9.0 mph -999.0 mph 94 % 0.00 in 0 W/m2
04:56 31.3 °F 29.8 °F 30.13 in SE 10.0 mph -999.0 mph 94 % 0.00 in 0 W/m2
05:01 31.3 °F 29.8 °F 30.13 in SE 10.0 mph -999.0 mph 94 % 0.00 in 0 W/m2
05:06 31.3 °F 29.8 °F 30.13 in SE 10.0 mph -999.0 mph 94 % 0.00 in 0 W/m2
05:11 31.1 °F 29.6 °F 30.13 in SSE 9.0 mph -999.0 mph 94 % 0.00 in 0 W/m2
05:16 31.1 °F 29.6 °F 30.13 in SSE 9.0 mph -999.0 mph 94 % 0.00 in 0 W/m2
05:21 31.1 °F 29.6 °F 30.13 in SSE 9.0 mph -999.0 mph 94 % 0.00 in 0 W/m2
05:26 31.2 °F 29.7 °F 30.12 in SE 8.0 mph -999.0 mph 94 % 0.00 in 0 W/m2
05:31 31.2 °F 29.7 °F 30.12 in SE 8.0 mph -999.0 mph 94 % 0.00 in 0 W/m2
05:36 31.2 °F 29.7 °F 30.12 in SE 8.0 mph -999.0 mph 94 % 0.00 in 0 W/m2
05:41 31.2 °F 29.7 °F 30.12 in SE 11.0 mph -999.0 mph 94 % 0.00 in 0 W/m2
05:46 31.2 °F 29.7 °F 30.12 in SE 11.0 mph -999.0 mph 94 % 0.00 in 0 W/m2
05:51 31.2 °F 29.7 °F 30.12 in SE 11.0 mph -999.0 mph 94 % 0.00 in 0 W/m2
05:56 31.1 °F 29.6 °F 30.12 in SE 10.0 mph -999.0 mph 94 % 0.00 in 0 W/m2
06:01 31.1 °F 29.6 °F 30.12 in SE 10.0 mph -999.0 mph 94 % 0.00 in 0 W/m2
06:06 31.1 °F 29.6 °F 30.12 in SE 10.0 mph -999.0 mph 94 % 0.00 in 0 W/m2
06:11 31.2 °F 29.7 °F 30.11 in SSE 8.0 mph -999.0 mph 94 % 0.00 in 0 W/m2
06:16 31.2 °F 29.7 °F 30.11 in SSE 8.0 mph -999.0 mph 94 % 0.00 in 0 W/m2
06:21 31.2 °F 29.7 °F 30.11 in SSE 8.0 mph -999.0 mph 94 % 0.00 in 0 W/m2
06:26 31.2 °F 29.7 °F 30.11 in SE 10.0 mph -999.0 mph 94 % 0.00 in 0 W/m2
06:31 31.2 °F 29.7 °F 30.11 in SE 10.0 mph -999.0 mph 94 % 0.00 in 0 W/m2
06:36 31.2 °F 29.7 °F 30.11 in SE 10.0 mph -999.0 mph 94 % 0.00 in 0 W/m2
06:41 30.9 °F 29.4 °F 30.11 in SE 11.0 mph -999.0 mph 94 % 0.00 in 0 W/m2
06:46 30.9 °F 29.4 °F 30.11 in SE 11.0 mph -999.0 mph 94 % 0.00 in 0 W/m2
06:51 30.9 °F 29.4 °F 30.11 in SE 11.0 mph -999.0 mph 94 % 0.00 in 0 W/m2
06:56 30.9 °F 29.1 °F 30.10 in SE 10.0 mph -999.0 mph 93 % 0.00 in 0 W/m2
07:01 30.9 °F 29.1 °F 30.10 in SE 10.0 mph -999.0 mph 93 % 0.00 in 0 W/m2
07:06 30.9 °F 29.1 °F 30.10 in SE 10.0 mph -999.0 mph 93 % 0.00 in 0 W/m2
07:11 30.9 °F 29.1 °F 30.10 in SSE 10.0 mph -999.0 mph 93 % 0.00 in 0 W/m2
07:16 30.9 °F 29.1 °F 30.10 in SSE 10.0 mph -999.0 mph 93 % 0.00 in 0 W/m2
07:21 30.9 °F 29.1 °F 30.10 in SSE 10.0 mph -999.0 mph 93 % 0.00 in 0 W/m2
07:26 31.1 °F 29.3 °F 30.10 in SSE 6.0 mph -999.0 mph 93 % 0.00 in 0 W/m2
07:31 31.1 °F 29.3 °F 30.10 in SSE 6.0 mph -999.0 mph 93 % 0.00 in 0 W/m2
07:36 31.1 °F 29.3 °F 30.10 in SSE 6.0 mph -999.0 mph 93 % 0.00 in 0 W/m2
07:41 31.2 °F 29.1 °F 30.09 in SE 10.0 mph -999.0 mph 92 % 0.00 in 0 W/m2
07:46 31.2 °F 29.1 °F 30.09 in SE 10.0 mph -999.0 mph 92 % 0.00 in 0 W/m2
07:51 31.2 °F 29.1 °F 30.09 in SE 10.0 mph -999.0 mph 92 % 0.00 in 0 W/m2
07:56 31.3 °F 29.2 °F 30.09 in SE 8.0 mph -999.0 mph 92 % 0.00 in 0 W/m2
08:01 31.3 °F 29.2 °F 30.09 in SE 8.0 mph -999.0 mph 92 % 0.00 in 0 W/m2
08:06 31.3 °F 29.2 °F 30.09 in SE 8.0 mph -999.0 mph 92 % 0.00 in 0 W/m2
08:11 31.4 °F 29.3 °F 30.09 in SE 7.0 mph -999.0 mph 92 % 0.00 in 0 W/m2
08:16 31.4 °F 29.3 °F 30.09 in SE 7.0 mph -999.0 mph 92 % 0.00 in 0 W/m2
08:21 31.4 °F 29.3 °F 30.09 in SE 7.0 mph -999.0 mph 92 % 0.00 in 0 W/m2
08:26 31.5 °F 29.2 °F 30.09 in SE 8.0 mph -999.0 mph 91 % 0.00 in 6 W/m2
08:31 31.5 °F 29.2 °F 30.09 in SE 8.0 mph -999.0 mph 91 % 0.00 in 6 W/m2
08:36 31.5 °F 29.2 °F 30.09 in SE 8.0 mph -999.0 mph 91 % 0.00 in 6 W/m2
08:41 31.5 °F 29.2 °F 30.09 in SSE 9.0 mph -999.0 mph 91 % 0.00 in 11 W/m2
08:46 31.5 °F 29.2 °F 30.09 in SSE 9.0 mph -999.0 mph 91 % 0.00 in 11 W/m2
08:51 31.5 °F 29.2 °F 30.09 in SSE 9.0 mph -999.0 mph 91 % 0.00 in 11 W/m2
08:56 31.6 °F 29.0 °F 30.09 in SE 9.0 mph -999.0 mph 90 % 0.00 in 16 W/m2
09:01 31.6 °F 29.0 °F 30.09 in SE 9.0 mph -999.0 mph 90 % 0.00 in 16 W/m2
09:06 31.6 °F 29.0 °F 30.09 in SE 9.0 mph -999.0 mph 90 % 0.00 in 16 W/m2
09:11 31.8 °F 29.2 °F 30.08 in SE 7.0 mph -999.0 mph 90 % 0.00 in 18 W/m2
09:16 31.8 °F 29.2 °F 30.08 in SE 7.0 mph -999.0 mph 90 % 0.00 in 18 W/m2
09:21 31.8 °F 29.2 °F 30.08 in SE 7.0 mph -999.0 mph 90 % 0.00 in 18 W/m2
09:26 31.7 °F 28.8 °F 30.08 in SSE 8.0 mph -999.0 mph 89 % 0.00 in 28 W/m2
09:31 31.7 °F 28.8 °F 30.08 in SSE 8.0 mph -999.0 mph 89 % 0.00 in 28 W/m2
09:36 31.7 °F 28.8 °F 30.08 in SSE 8.0 mph -999.0 mph 89 % 0.00 in 28 W/m2
09:41 31.5 °F 28.9 °F 30.08 in SE 9.0 mph -999.0 mph 90 % 0.00 in 30 W/m2
09:46 31.5 °F 28.9 °F 30.08 in SE 9.0 mph -999.0 mph 90 % 0.00 in 30 W/m2
09:51 31.5 °F 28.9 °F 30.08 in SE 9.0 mph -999.0 mph 90 % 0.00 in 30 W/m2
09:56 31.5 °F 28.6 °F 30.08 in SE 10.0 mph -999.0 mph 89 % 0.00 in 35 W/m2
10:01 31.5 °F 28.6 °F 30.08 in SE 10.0 mph -999.0 mph 89 % 0.00 in 35 W/m2
10:06 31.5 °F 28.6 °F 30.08 in SE 10.0 mph -999.0 mph 89 % 0.00 in 35 W/m2
10:11 31.4 °F 28.5 °F 30.07 in SE 10.0 mph -999.0 mph 89 % 0.00 in 39 W/m2
10:16 31.4 °F 28.5 °F 30.07 in SE 10.0 mph -999.0 mph 89 % 0.00 in 39 W/m2
10:21 31.4 °F 28.5 °F 30.07 in SE 10.0 mph -999.0 mph 89 % 0.00 in 39 W/m2
10:26 31.6 °F 28.7 °F 30.07 in SSE 7.0 mph -999.0 mph 89 % 0.00 in 43 W/m2
10:31 31.6 °F 28.7 °F 30.07 in SSE 7.0 mph -999.0 mph 89 % 0.00 in 43 W/m2
10:36 31.6 °F 28.7 °F 30.07 in SSE 7.0 mph -999.0 mph 89 % 0.00 in 43 W/m2
10:41 31.5 °F 28.4 °F 30.07 in SE 10.0 mph -999.0 mph 88 % 0.00 in 55 W/m2
10:46 31.5 °F 28.4 °F 30.07 in SE 10.0 mph -999.0 mph 88 % 0.00 in 55 W/m2
10:51 31.5 °F 28.4 °F 30.07 in SE 10.0 mph -999.0 mph 88 % 0.00 in 55 W/m2
10:56 31.4 °F 28.3 °F 30.07 in SE 7.0 mph -999.0 mph 88 % 0.00 in 54 W/m2
11:01 31.4 °F 28.3 °F 30.07 in SE 7.0 mph -999.0 mph 88 % 0.00 in 54 W/m2
11:06 31.4 °F 28.3 °F 30.07 in SE 7.0 mph -999.0 mph 88 % 0.00 in 54 W/m2
11:11 31.3 °F 28.2 °F 30.06 in SSE 8.0 mph -999.0 mph 88 % 0.00 in 58 W/m2
11:16 31.3 °F 28.2 °F 30.06 in SSE 8.0 mph -999.0 mph 88 % 0.00 in 58 W/m2
11:21 31.3 °F 28.2 °F 30.06 in SSE 8.0 mph -999.0 mph 88 % 0.00 in 58 W/m2
11:26 31.1 °F 28.0 °F 30.05 in SE 8.0 mph -999.0 mph 88 % 0.00 in 58 W/m2
11:31 31.1 °F 28.0 °F 30.05 in SE 8.0 mph -999.0 mph 88 % 0.00 in 58 W/m2
11:36 31.1 °F 28.0 °F 30.05 in SE 8.0 mph -999.0 mph 88 % 0.00 in 58 W/m2
11:41 31.1 °F 27.7 °F 30.05 in SE 10.0 mph -999.0 mph 87 % 0.00 in 49 W/m2
11:46 31.1 °F 27.7 °F 30.05 in SE 10.0 mph -999.0 mph 87 % 0.00 in 49 W/m2
11:51 31.1 °F 27.7 °F 30.05 in SE 10.0 mph -999.0 mph 87 % 0.00 in 49 W/m2
11:56 30.9 °F 27.8 °F 30.05 in SSE 9.0 mph -999.0 mph 88 % 0.00 in 42 W/m2
12:01 30.9 °F 27.8 °F 30.05 in SSE 9.0 mph -999.0 mph 88 % 0.00 in 42 W/m2
12:06 30.9 °F 27.8 °F 30.05 in SSE 9.0 mph -999.0 mph 88 % 0.00 in 42 W/m2
12:11 31.0 °F 27.9 °F 30.04 in SE 8.0 mph -999.0 mph 88 % 0.00 in 47 W/m2
12:16 31.0 °F 27.9 °F 30.04 in SE 8.0 mph -999.0 mph 88 % 0.00 in 47 W/m2
12:21 31.0 °F 27.9 °F 30.04 in SE 8.0 mph -999.0 mph 88 % 0.00 in 47 W/m2
12:26 31.1 °F 28.0 °F 30.04 in SSE 6.0 mph -999.0 mph 88 % 0.00 in 55 W/m2
12:31 31.1 °F 28.0 °F 30.04 in SSE 6.0 mph -999.0 mph 88 % 0.00 in 55 W/m2
12:36 31.1 °F 28.0 °F 30.04 in SSE 6.0 mph -999.0 mph 88 % 0.00 in 55 W/m2
12:41 31.2 °F 28.1 °F 30.03 in SSE 8.0 mph -999.0 mph 88 % 0.00 in 56 W/m2
12:46 31.2 °F 28.1 °F 30.03 in SSE 8.0 mph -999.0 mph 88 % 0.00 in 56 W/m2
12:51 31.2 °F 28.1 °F 30.03 in SSE 8.0 mph -999.0 mph 88 % 0.00 in 56 W/m2
12:56 31.1 °F 28.0 °F 30.03 in South 9.0 mph -999.0 mph 88 % 0.00 in 66 W/m2
13:01 31.1 °F 28.0 °F 30.03 in South 9.0 mph -999.0 mph 88 % 0.00 in 66 W/m2
13:06 31.1 °F 28.0 °F 30.03 in South 9.0 mph -999.0 mph 88 % 0.00 in 66 W/m2
13:11 31.2 °F 27.8 °F 30.02 in SSE 8.0 mph -999.0 mph 87 % 0.00 in 59 W/m2
13:16 31.2 °F 27.8 °F 30.02 in SSE 8.0 mph -999.0 mph 87 % 0.00 in 59 W/m2
13:21 31.2 °F 27.8 °F 30.02 in SSE 8.0 mph -999.0 mph 87 % 0.00 in 59 W/m2
13:26 31.2 °F 28.1 °F 30.02 in SE 9.0 mph -999.0 mph 88 % 0.00 in 46 W/m2
13:31 31.2 °F 28.1 °F 30.02 in SE 9.0 mph -999.0 mph 88 % 0.00 in 46 W/m2
13:36 31.2 °F 28.1 °F 30.02 in SE 9.0 mph -999.0 mph 88 % 0.00 in 46 W/m2
13:41 31.2 °F 28.1 °F 30.02 in SSE 7.0 mph -999.0 mph 88 % 0.00 in 40 W/m2
13:46 31.2 °F 28.1 °F 30.02 in SSE 7.0 mph -999.0 mph 88 % 0.00 in 40 W/m2
13:51 31.2 °F 28.1 °F 30.02 in SSE 7.0 mph -999.0 mph 88 % 0.00 in 40 W/m2
13:56 31.3 °F 28.4 °F 30.02 in SE 8.0 mph -999.0 mph 89 % 0.00 in 35 W/m2
14:01 31.3 °F 28.4 °F 30.02 in SE 8.0 mph -999.0 mph 89 % 0.00 in 35 W/m2
14:06 31.3 °F 28.4 °F 30.02 in SE 8.0 mph -999.0 mph 89 % 0.00 in 35 W/m2
14:11 31.2 °F 28.3 °F 30.01 in SE 11.0 mph -999.0 mph 89 % 0.00 in 35 W/m2
14:16 31.2 °F 28.3 °F 30.01 in SE 11.0 mph -999.0 mph 89 % 0.00 in 35 W/m2
14:21 31.2 °F 28.3 °F 30.01 in SE 11.0 mph -999.0 mph 89 % 0.00 in 35 W/m2
14:26 31.2 °F 28.1 °F 30.01 in SE 9.0 mph -999.0 mph 88 % 0.00 in 32 W/m2
14:31 31.2 °F 28.1 °F 30.01 in SE 9.0 mph -999.0 mph 88 % 0.00 in 32 W/m2
14:36 31.2 °F 28.1 °F 30.01 in SE 9.0 mph -999.0 mph 88 % 0.00 in 32 W/m2
14:41 31.2 °F 28.1 °F 30.01 in SSE 8.0 mph -999.0 mph 88 % 0.00 in 29 W/m2
14:46 31.2 °F 28.1 °F 30.01 in SSE 8.0 mph -999.0 mph 88 % 0.00 in 29 W/m2
14:51 31.2 °F 28.1 °F 30.01 in SSE 8.0 mph -999.0 mph 88 % 0.00 in 29 W/m2
14:56 31.3 °F 28.2 °F 30.01 in South 6.0 mph -999.0 mph 88 % 0.00 in 25 W/m2
15:01 31.3 °F 28.2 °F 30.01 in South 6.0 mph -999.0 mph 88 % 0.00 in 25 W/m2
15:06 31.3 °F 28.2 °F 30.01 in South 6.0 mph -999.0 mph 88 % 0.00 in 25 W/m2
15:11 31.3 °F 28.2 °F 30.01 in SSE 9.0 mph -999.0 mph 88 % 0.00 in 18 W/m2
15:16 31.3 °F 28.2 °F 30.01 in SSE 9.0 mph -999.0 mph 88 % 0.00 in 18 W/m2
15:21 31.3 °F 28.2 °F 30.01 in SSE 9.0 mph -999.0 mph 88 % 0.00 in 18 W/m2
15:26 31.2 °F 28.3 °F 30.01 in SE 9.0 mph -999.0 mph 89 % 0.00 in 14 W/m2
15:31 31.2 °F 28.3 °F 30.01 in SE 9.0 mph -999.0 mph 89 % 0.00 in 14 W/m2
15:36 31.2 °F 28.3 °F 30.01 in SE 9.0 mph -999.0 mph 89 % 0.00 in 14 W/m2
15:41 31.3 °F 28.4 °F 30.01 in SE 9.0 mph -999.0 mph 89 % 0.00 in 10 W/m2
15:46 31.3 °F 28.4 °F 30.01 in SE 9.0 mph -999.0 mph 89 % 0.00 in 10 W/m2
15:51 31.3 °F 28.4 °F 30.01 in SE 9.0 mph -999.0 mph 89 % 0.00 in 10 W/m2
15:56 31.2 °F 28.3 °F 30.00 in SE 10.0 mph -999.0 mph 89 % 0.00 in 7 W/m2
16:01 31.2 °F 28.3 °F 30.00 in SE 10.0 mph -999.0 mph 89 % 0.00 in 7 W/m2
16:06 31.2 °F 28.3 °F 30.00 in SE 10.0 mph -999.0 mph 89 % 0.00 in 7 W/m2
16:11 31.3 °F 28.4 °F 30.01 in SSE 9.0 mph -999.0 mph 89 % 0.00 in 4 W/m2
16:16 31.3 °F 28.4 °F 30.01 in SSE 9.0 mph -999.0 mph 89 % 0.00 in 4 W/m2
16:21 31.3 °F 28.4 °F 30.01 in SSE 9.0 mph -999.0 mph 89 % 0.00 in 4 W/m2
16:26 31.3 °F 28.7 °F 30.01 in SSE 7.0 mph -999.0 mph 90 % 0.00 in 0 W/m2
16:31 31.3 °F 28.7 °F 30.01 in SSE 7.0 mph -999.0 mph 90 % 0.00 in 0 W/m2
16:36 31.3 °F 28.7 °F 30.01 in SSE 7.0 mph -999.0 mph 90 % 0.00 in 0 W/m2
16:41 31.3 °F 28.7 °F 30.00 in SE 9.0 mph -999.0 mph 90 % 0.00 in 0 W/m2
16:46 31.3 °F 28.7 °F 30.00 in SE 9.0 mph -999.0 mph 90 % 0.00 in 0 W/m2
16:51 31.3 °F 28.7 °F 30.00 in SE 9.0 mph -999.0 mph 90 % 0.00 in 0 W/m2
16:56 31.3 °F 28.7 °F 30.00 in SSE 10.0 mph -999.0 mph 90 % 0.00 in 0 W/m2
17:01 31.3 °F 28.7 °F 30.00 in SSE 10.0 mph -999.0 mph 90 % 0.00 in 0 W/m2
17:06 31.3 °F 28.7 °F 30.00 in SSE 10.0 mph -999.0 mph 90 % 0.00 in 0 W/m2
17:11 31.3 °F 28.4 °F 30.00 in SSE 8.0 mph -999.0 mph 89 % 0.00 in 0 W/m2
17:16 31.3 °F 28.4 °F 30.00 in SSE 8.0 mph -999.0 mph 89 % 0.00 in 0 W/m2
17:21 31.3 °F 28.4 °F 30.00 in SSE 8.0 mph -999.0 mph 89 % 0.00 in 0 W/m2
17:26 31.3 °F 28.7 °F 30.00 in SSE 9.0 mph -999.0 mph 90 % 0.00 in 0 W/m2
17:31 31.3 °F 28.7 °F 30.00 in SSE 9.0 mph -999.0 mph 90 % 0.00 in 0 W/m2
17:36 31.3 °F 28.7 °F 30.00 in SSE 9.0 mph -999.0 mph 90 % 0.00 in 0 W/m2
17:41 31.2 °F 28.3 °F 30.00 in SSE 10.0 mph -999.0 mph 89 % 0.00 in 0 W/m2
17:46 31.2 °F 28.3 °F 30.00 in SSE 10.0 mph -999.0 mph 89 % 0.00 in 0 W/m2
17:51 31.2 °F 28.3 °F 30.00 in SSE 10.0 mph -999.0 mph 89 % 0.00 in 0 W/m2
17:56 31.2 °F 28.3 °F 30.00 in SSE 11.0 mph -999.0 mph 89 % 0.00 in 0 W/m2
18:01 31.2 °F 28.3 °F 30.00 in SSE 11.0 mph -999.0 mph 89 % 0.00 in 0 W/m2
18:06 31.2 °F 28.3 °F 30.00 in SSE 11.0 mph -999.0 mph 89 % 0.00 in 0 W/m2
18:11 31.1 °F 28.2 °F 30.00 in SSE 9.0 mph -999.0 mph 89 % 0.00 in 0 W/m2
18:16 31.1 °F 28.2 °F 30.00 in SSE 9.0 mph -999.0 mph 89 % 0.00 in 0 W/m2
18:21 31.1 °F 28.2 °F 30.00 in SSE 9.0 mph -999.0 mph 89 % 0.00 in 0 W/m2
18:26 31.0 °F 28.1 °F 30.00 in South 8.0 mph -999.0 mph 89 % 0.00 in 0 W/m2
18:31 31.0 °F 28.1 °F 30.00 in South 8.0 mph -999.0 mph 89 % 0.00 in 0 W/m2
18:36 31.0 °F 28.1 °F 30.00 in South 8.0 mph -999.0 mph 89 % 0.00 in 0 W/m2
18:41 31.0 °F 28.1 °F 30.00 in SSE 7.0 mph -999.0 mph 89 % 0.00 in 0 W/m2
18:46 31.0 °F 28.1 °F 30.00 in SSE 7.0 mph -999.0 mph 89 % 0.00 in 0 W/m2
18:51 31.0 °F 28.1 °F 30.00 in SSE 7.0 mph -999.0 mph 89 % 0.00 in 0 W/m2
18:56 31.0 °F 28.4 °F 30.00 in SE 8.0 mph -999.0 mph 90 % 0.00 in 0 W/m2
19:01 31.0 °F 28.4 °F 30.00 in SE 8.0 mph -999.0 mph 90 % 0.00 in 0 W/m2
19:06 31.0 °F 28.4 °F 30.00 in SE 8.0 mph -999.0 mph 90 % 0.00 in 0 W/m2
19:11 30.9 °F 28.0 °F 30.00 in SE 9.0 mph -999.0 mph 89 % 0.00 in 0 W/m2
19:16 30.9 °F 28.0 °F 30.00 in SE 9.0 mph -999.0 mph 89 % 0.00 in 0 W/m2
19:21 30.9 °F 28.0 °F 30.00 in SE 9.0 mph -999.0 mph 89 % 0.00 in 0 W/m2
19:26 30.6 °F 27.7 °F 30.00 in SE 9.0 mph -999.0 mph 89 % 0.00 in 0 W/m2
19:31 30.6 °F 27.7 °F 30.00 in SE 9.0 mph -999.0 mph 89 % 0.00 in 0 W/m2
19:36 30.6 °F 27.7 °F 30.00 in SE 9.0 mph -999.0 mph 89 % 0.00 in 0 W/m2
19:41 30.6 °F 27.7 °F 30.00 in SE 7.0 mph -999.0 mph 89 % 0.00 in 0 W/m2
19:46 30.6 °F 27.7 °F 30.00 in SE 7.0 mph -999.0 mph 89 % 0.00 in 0 W/m2
19:51 30.6 °F 27.7 °F 30.00 in SE 7.0 mph -999.0 mph 89 % 0.00 in 0 W/m2
19:56 30.7 °F 27.8 °F 30.00 in SSE 7.0 mph -999.0 mph 89 % 0.00 in 0 W/m2
20:01 30.7 °F 27.8 °F 30.00 in SSE 7.0 mph -999.0 mph 89 % 0.00 in 0 W/m2
20:06 30.7 °F 27.8 °F 30.00 in SSE 7.0 mph -999.0 mph 89 % 0.00 in 0 W/m2
20:11 30.6 °F 27.5 °F 30.00 in SSE 8.0 mph -999.0 mph 88 % 0.00 in 0 W/m2
20:16 30.6 °F 27.5 °F 30.00 in SSE 8.0 mph -999.0 mph 88 % 0.00 in 0 W/m2
20:21 30.6 °F 27.5 °F 30.00 in SSE 8.0 mph -999.0 mph 88 % 0.00 in 0 W/m2
20:26 30.3 °F 27.4 °F 30.00 in SSE 7.0 mph -999.0 mph 89 % 0.00 in 0 W/m2
20:31 30.3 °F 27.4 °F 30.00 in SSE 7.0 mph -999.0 mph 89 % 0.00 in 0 W/m2
20:36 30.3 °F 27.4 °F 30.00 in SSE 7.0 mph -999.0 mph 89 % 0.00 in 0 W/m2
20:41 30.2 °F 27.3 °F 30.00 in South 5.0 mph -999.0 mph 89 % 0.00 in 0 W/m2
20:46 30.2 °F 27.3 °F 30.00 in South 5.0 mph -999.0 mph 89 % 0.00 in 0 W/m2
20:51 30.2 °F 27.3 °F 30.00 in South 5.0 mph -999.0 mph 89 % 0.00 in 0 W/m2
20:56 30.0 °F 26.9 °F 29.99 in SSE 7.0 mph -999.0 mph 88 % 0.00 in 0 W/m2
21:01 30.0 °F 26.9 °F 29.99 in SSE 7.0 mph -999.0 mph 88 % 0.00 in 0 W/m2
21:06 30.0 °F 26.9 °F 29.99 in SSE 7.0 mph -999.0 mph 88 % 0.00 in 0 W/m2
21:11 29.9 °F 27.1 °F 29.99 in SSE 7.0 mph -999.0 mph 89 % 0.00 in 0 W/m2
21:16 29.9 °F 27.1 °F 29.99 in SSE 7.0 mph -999.0 mph 89 % 0.00 in 0 W/m2
21:21 29.9 °F 27.1 °F 29.99 in SSE 7.0 mph -999.0 mph 89 % 0.00 in 0 W/m2
21:26 29.9 °F 27.1 °F 29.98 in SSE 6.0 mph -999.0 mph 89 % 0.00 in 0 W/m2
21:31 29.9 °F 27.1 °F 29.98 in SSE 6.0 mph -999.0 mph 89 % 0.00 in 0 W/m2
21:36 29.9 °F 27.1 °F 29.98 in SSE 6.0 mph -999.0 mph 89 % 0.00 in 0 W/m2
21:41 29.8 °F 27.0 °F 29.98 in SE 7.0 mph -999.0 mph 89 % 0.00 in 0 W/m2
21:46 29.8 °F 27.0 °F 29.98 in SE 7.0 mph -999.0 mph 89 % 0.00 in 0 W/m2
21:51 29.8 °F 27.0 °F 29.98 in SE 7.0 mph -999.0 mph 89 % 0.00 in 0 W/m2
21:56 29.7 °F 26.9 °F 29.98 in SE 8.0 mph -999.0 mph 89 % 0.00 in 0 W/m2
22:01 29.7 °F 26.9 °F 29.98 in SE 8.0 mph -999.0 mph 89 % 0.00 in 0 W/m2
22:06 29.7 °F 26.9 °F 29.98 in SE 8.0 mph -999.0 mph 89 % 0.00 in 0 W/m2
22:11 29.5 °F 26.9 °F 29.98 in SE 7.0 mph -999.0 mph 90 % 0.00 in 0 W/m2
22:16 29.5 °F 26.9 °F 29.98 in SE 7.0 mph -999.0 mph 90 % 0.00 in 0 W/m2
22:21 29.5 °F 26.9 °F 29.98 in SE 7.0 mph -999.0 mph 90 % 0.00 in 0 W/m2
22:26 29.5 °F 26.9 °F 29.98 in SE 5.0 mph -999.0 mph 90 % 0.00 in 0 W/m2
22:31 29.5 °F 26.9 °F 29.98 in SE 5.0 mph -999.0 mph 90 % 0.00 in 0 W/m2
22:36 29.5 °F 26.9 °F 29.98 in SE 5.0 mph -999.0 mph 90 % 0.00 in 0 W/m2
22:41 29.4 °F 26.8 °F 29.98 in SE 7.0 mph -999.0 mph 90 % 0.00 in 0 W/m2
22:46 29.4 °F 26.8 °F 29.98 in SE 7.0 mph -999.0 mph 90 % 0.00 in 0 W/m2
22:51 29.4 °F 26.8 °F 29.98 in SE 7.0 mph -999.0 mph 90 % 0.00 in 0 W/m2
22:56 29.2 °F 26.6 °F 29.98 in SE 8.0 mph -999.0 mph 90 % 0.00 in 0 W/m2
23:01 29.2 °F 26.6 °F 29.98 in SE 8.0 mph -999.0 mph 90 % 0.00 in 0 W/m2
23:06 29.2 °F 26.6 °F 29.98 in SE 8.0 mph -999.0 mph 90 % 0.00 in 0 W/m2
23:11 28.9 °F 26.3 °F 29.97 in SSE 8.0 mph -999.0 mph 90 % 0.00 in 0 W/m2
23:16 28.9 °F 26.3 °F 29.97 in SSE 8.0 mph -999.0 mph 90 % 0.00 in 0 W/m2
23:21 28.9 °F 26.3 °F 29.97 in SSE 8.0 mph -999.0 mph 90 % 0.00 in 0 W/m2
23:26 28.8 °F 26.2 °F 29.97 in SE 6.0 mph -999.0 mph 90 % 0.00 in 0 W/m2
23:31 28.8 °F 26.2 °F 29.97 in SE 6.0 mph -999.0 mph 90 % 0.00 in 0 W/m2
23:36 28.8 °F 26.2 °F 29.97 in SE 6.0 mph -999.0 mph 90 % 0.00 in 0 W/m2
23:41 28.8 °F 26.5 °F 29.97 in SSE 7.0 mph -999.0 mph 91 % 0.00 in 0 W/m2
23:46 28.8 °F 26.5 °F 29.97 in SSE 7.0 mph -999.0 mph 91 % 0.00 in 0 W/m2
23:51 28.8 °F 26.5 °F 29.97 in SSE 7.0 mph -999.0 mph 91 % 0.00 in 0 W/m2
23:56 28.8 °F 26.5 °F 29.97 in SSE 7.0 mph -999.0 mph 91 % 0.00 in 0 W/m2
Delerius-Weather
Compliments of Weather Underground - 2.25 mb

Data updates at regular intervals.